Terminal Aerodrome Forecast
Issued by NWS Mt. Holly, NJ

Home | Current Version | Previous Version | Text Only | Print | Product List | Glossary On
Versions: 1 2 3 4 5 6 7 8 9 10 11 12 13 14 15 16 17 18 19 20 21
000
FTAK31 PANC 272329
TAFABE
TAF
PABE 272329Z 2800/2824 17010KT P6SM -SHRA BKN035 OVC045
     FM280600 VRB04KT P6SM SCT030 BKN040
     FM281500 04006KT P6SM FEW060 SCT100
     FM282100 02010G20KT P6SM VCSH BKN035 OVC050=

USA.gov is the U.S. government's official web portal to all federal, state and local government web resources and services.